createdAt,value
2023-03-12T00:00:04.285Z,3.40
2023-03-12T00:02:30.918Z,3.40
2023-03-12T00:04:57.554Z,3.40
2023-03-12T00:07:24.263Z,3.40
2023-03-12T00:09:50.906Z,3.40
2023-03-12T00:12:17.672Z,3.40
2023-03-12T00:14:44.389Z,3.40
2023-03-12T00:17:11.024Z,3.40
2023-03-12T00:19:37.678Z,3.40
2023-03-12T00:22:04.363Z,3.40
2023-03-12T00:24:31.019Z,3.40
2023-03-12T00:26:57.644Z,3.40
2023-03-12T00:29:24.299Z,3.30
2023-03-12T00:31:51.730Z,3.30
2023-03-12T00:34:18.641Z,3.30
2023-03-12T00:36:45.354Z,3.30
2023-03-12T00:39:12.079Z,3.30
2023-03-12T00:41:40.286Z,3.30
2023-03-12T00:44:07.129Z,3.30
2023-03-12T00:46:33.885Z,3.30
2023-03-12T00:49:00.533Z,3.30
2023-03-12T00:51:27.225Z,3.20
2023-03-12T00:53:55.856Z,3.20
2023-03-12T00:56:22.626Z,3.20
2023-03-12T00:58:49.290Z,3.20
2023-03-12T01:01:16.046Z,3.20
2023-03-12T01:03:42.860Z,3.10
2023-03-12T01:06:09.674Z,3.20
2023-03-12T01:08:36.338Z,3.20
2023-03-12T01:11:03.090Z,3.20
2023-03-12T01:13:32.199Z,3.20
2023-03-12T01:15:58.967Z,3.10
2023-03-12T01:18:25.675Z,3.10
2023-03-12T01:20:52.423Z,3.10
2023-03-12T01:23:19.066Z,3.10
2023-03-12T01:25:47.379Z,3.10
2023-03-12T01:28:14.042Z,3.10
2023-03-12T01:30:40.750Z,3.10
2023-03-12T01:33:07.400Z,3.10
2023-03-12T01:35:39.321Z,3.10
2023-03-12T01:38:13.514Z,3.10
2023-03-12T01:40:44.079Z,3.10
2023-03-12T01:43:27.960Z,3.10
2023-03-12T01:46:05.956Z,3.10
2023-03-12T01:48:39.436Z,3.10
2023-03-12T01:51:08.997Z,3.10
2023-03-12T01:53:36.446Z,3.10
2023-03-12T01:56:03.475Z,3.10
2023-03-12T01:58:33.249Z,3.10
2023-03-12T02:01:00.642Z,3.10
2023-03-12T02:03:28.724Z,3.10
2023-03-12T02:06:02.465Z,3.10
2023-03-12T02:08:30.229Z,3.10
2023-03-12T02:10:56.905Z,3.10
2023-03-12T02:13:23.647Z,3.00
2023-03-12T02:15:53.187Z,3.00
2023-03-12T02:18:21.602Z,3.00
2023-03-12T02:21:15.153Z,3.00
2023-03-12T02:24:17.311Z,3.00
2023-03-12T02:26:44.051Z,3.00
2023-03-12T02:29:11.332Z,3.00
2023-03-12T02:31:58.798Z,3.00
2023-03-12T02:34:25.513Z,3.00
2023-03-12T02:36:52.398Z,3.00
2023-03-12T02:39:19.506Z,3.20
2023-03-12T02:41:53.170Z,3.00
2023-03-12T02:44:25.675Z,3.00
2023-03-12T02:46:58.568Z,3.00
2023-03-12T02:49:28.696Z,3.00
2023-03-12T02:51:55.672Z,3.00
2023-03-12T02:54:23.017Z,3.00
2023-03-12T02:56:50.324Z,3.00
2023-03-12T02:59:18.200Z,3.00
2023-03-12T03:01:45.222Z,2.90
2023-03-12T03:04:12.382Z,2.90
2023-03-12T03:06:43.138Z,2.90
2023-03-12T03:09:12.645Z,3.00
2023-03-12T03:11:39.285Z,2.90
2023-03-12T03:14:06.927Z,2.90
2023-03-12T03:16:33.989Z,2.90
2023-03-12T03:19:00.662Z,2.90
2023-03-12T03:21:27.384Z,2.90
2023-03-12T03:23:54.016Z,2.90
2023-03-12T03:26:22.645Z,2.80
2023-03-12T03:28:49.753Z,2.80
2023-03-12T03:31:16.645Z,2.90
2023-03-12T03:33:43.664Z,2.80
2023-03-12T03:36:11.253Z,2.90
2023-03-12T03:38:37.876Z,2.80
2023-03-12T03:41:04.732Z,2.90
2023-03-12T03:43:31.390Z,2.80
2023-03-12T03:45:59.897Z,2.80
2023-03-12T03:48:26.843Z,2.90
2023-03-12T03:50:53.512Z,2.90
2023-03-12T03:53:21.125Z,2.80
2023-03-12T03:55:47.888Z,2.80
2023-03-12T03:58:14.581Z,2.80
2023-03-12T04:00:43.669Z,2.80
2023-03-12T04:03:10.348Z,2.80
2023-03-12T04:05:38.325Z,2.90
2023-03-12T04:08:05.481Z,2.80
2023-03-12T04:10:32.588Z,2.80
2023-03-12T04:12:59.294Z,2.80
2023-03-12T04:15:25.948Z,2.80
2023-03-12T04:17:52.621Z,2.80
2023-03-12T04:20:19.347Z,2.80
2023-03-12T04:22:45.956Z,2.80
2023-03-12T04:25:12.645Z,2.80
2023-03-12T04:27:39.282Z,2.80
2023-03-12T04:30:06.805Z,2.80
2023-03-12T04:32:33.457Z,2.80
2023-03-12T04:35:00.118Z,2.80
2023-03-12T04:37:26.744Z,2.80
2023-03-12T04:39:53.411Z,2.80
2023-03-12T04:42:20.029Z,2.70
2023-03-12T04:44:46.672Z,2.80
2023-03-12T04:47:13.330Z,2.80
2023-03-12T04:49:40.028Z,2.80
2023-03-12T04:52:06.874Z,2.80
2023-03-12T04:54:33.999Z,2.80
2023-03-12T04:57:00.787Z,2.70
2023-03-12T04:59:27.445Z,2.70
2023-03-12T05:01:54.109Z,2.70
2023-03-12T05:04:20.726Z,2.70
2023-03-12T05:06:47.362Z,2.70
2023-03-12T05:09:13.955Z,2.70
2023-03-12T05:11:40.609Z,2.70
2023-03-12T05:14:07.208Z,2.70
2023-03-12T05:16:33.827Z,2.70
2023-03-12T05:19:02.238Z,2.70
2023-03-12T05:21:28.902Z,2.70
2023-03-12T05:23:55.772Z,2.70
2023-03-12T05:26:25.521Z,2.70
2023-03-12T05:28:59.244Z,2.70
2023-03-12T05:31:27.006Z,2.70
2023-03-12T05:33:54.222Z,2.70
2023-03-12T05:36:21.274Z,2.60
2023-03-12T05:38:47.984Z,2.70
2023-03-12T05:41:23.939Z,2.70
2023-03-12T05:43:51.869Z,2.70
2023-03-12T05:46:18.665Z,2.70
2023-03-12T05:48:45.556Z,2.70
2023-03-12T05:51:12.257Z,2.70
2023-03-12T05:53:38.918Z,2.70
2023-03-12T05:56:08.427Z,2.70
2023-03-12T05:58:35.804Z,2.60
2023-03-12T06:01:02.633Z,2.70
2023-03-12T06:03:29.331Z,2.60
2023-03-12T06:05:57.002Z,2.70
2023-03-12T06:08:24.483Z,2.70
2023-03-12T06:10:53.932Z,2.70
2023-03-12T06:13:22.390Z,2.70
2023-03-12T06:15:49.901Z,2.70
2023-03-12T06:18:16.721Z,2.70
2023-03-12T06:20:43.382Z,2.70
2023-03-12T06:23:10.032Z,2.70
2023-03-12T06:25:37.120Z,2.70
2023-03-12T06:28:03.912Z,2.70
2023-03-12T06:30:30.543Z,2.70
2023-03-12T06:32:57.265Z,2.70
2023-03-12T06:35:23.955Z,2.70
2023-03-12T06:37:50.604Z,2.70
2023-03-12T06:40:17.746Z,2.80
2023-03-12T06:42:44.360Z,2.80
2023-03-12T06:45:11.277Z,2.80
2023-03-12T06:47:38.040Z,2.80
2023-03-12T06:50:04.949Z,2.80
2023-03-12T06:52:31.561Z,2.80
2023-03-12T06:54:58.173Z,2.80
2023-03-12T06:57:24.829Z,2.80
2023-03-12T06:59:51.584Z,2.80
2023-03-12T07:02:18.301Z,2.80
2023-03-12T07:04:45.002Z,2.80
2023-03-12T07:07:11.935Z,2.80
2023-03-12T07:09:38.697Z,2.90
2023-03-12T07:12:05.507Z,2.90
2023-03-12T07:14:32.142Z,2.80
2023-03-12T07:17:01.732Z,2.90
2023-03-12T07:19:30.232Z,2.90
2023-03-12T07:21:57.008Z,2.90
2023-03-12T07:24:23.824Z,2.90
2023-03-12T07:26:50.519Z,2.90
2023-03-12T07:29:17.211Z,2.90
2023-03-12T07:31:43.896Z,2.90
2023-03-12T07:34:10.741Z,2.90
2023-03-12T07:36:37.538Z,2.90
2023-03-12T07:39:04.574Z,3.00
2023-03-12T07:41:31.457Z,2.90
2023-03-12T07:43:58.374Z,3.00
2023-03-12T07:46:25.336Z,3.00
2023-03-12T07:48:51.968Z,3.00
2023-03-12T07:51:18.596Z,3.00
2023-03-12T07:53:45.561Z,3.00
2023-03-12T07:56:12.322Z,3.00
2023-03-12T07:58:39.327Z,3.00
2023-03-12T08:01:06.683Z,3.00
2023-03-12T08:03:33.652Z,3.00
2023-03-12T08:06:03.177Z,3.10
2023-03-12T08:08:31.442Z,3.10
2023-03-12T08:10:59.976Z,3.10
2023-03-12T08:13:26.868Z,3.20
2023-03-12T08:15:54.257Z,3.20
2023-03-12T08:18:21.729Z,3.20
2023-03-12T08:20:51.826Z,3.20
2023-03-12T08:23:18.915Z,3.20
2023-03-12T08:25:49.757Z,3.20
2023-03-12T08:28:17.674Z,3.30
2023-03-12T08:30:49.243Z,3.30
2023-03-12T08:33:16.285Z,3.30
2023-03-12T08:35:43.876Z,3.40
2023-03-12T08:38:10.721Z,3.40
2023-03-12T08:40:37.909Z,3.40
2023-03-12T08:43:04.868Z,3.40
2023-03-12T08:45:31.676Z,3.40
2023-03-12T08:47:58.369Z,3.40
2023-03-12T08:50:29.038Z,3.40
2023-03-12T08:52:56.186Z,3.40
2023-03-12T08:55:22.836Z,3.40
2023-03-12T08:57:51.100Z,3.40
2023-03-12T09:00:18.192Z,3.50
2023-03-12T09:02:45.721Z,3.50
2023-03-12T09:05:12.661Z,3.50
2023-03-12T09:07:39.320Z,3.50
2023-03-12T09:10:06.850Z,3.60
2023-03-12T09:12:34.020Z,3.50
2023-03-12T09:15:03.927Z,3.60
2023-03-12T09:17:31.441Z,3.60
2023-03-12T09:19:58.112Z,3.60
2023-03-12T09:22:24.844Z,3.70
2023-03-12T09:24:51.879Z,3.70
2023-03-12T09:27:18.816Z,3.80
2023-03-12T09:29:57.250Z,3.80
2023-03-12T09:32:27.349Z,3.90
2023-03-12T09:34:54.423Z,3.90
2023-03-12T09:37:23.740Z,3.90
2023-03-12T09:39:51.730Z,3.90
2023-03-12T09:42:30.447Z,3.90
2023-03-12T09:45:01.993Z,4.00
2023-03-12T09:47:43.192Z,4.00
2023-03-12T09:50:26.475Z,4.10
2023-03-12T09:53:11.444Z,4.10
2023-03-12T09:55:40.787Z,4.10
2023-03-12T09:58:25.442Z,4.20
2023-03-12T10:00:59.402Z,4.20
2023-03-12T10:04:05.889Z,4.20
2023-03-12T10:06:38.731Z,4.30
2023-03-12T10:09:25.219Z,4.30
2023-03-12T10:12:15.306Z,4.30
2023-03-12T10:15:14.970Z,4.40
2023-03-12T10:18:10.058Z,4.40
2023-03-12T10:21:01.711Z,4.40
2023-03-12T10:23:34.399Z,4.60
2023-03-12T10:26:23.390Z,4.60
2023-03-12T10:28:55.820Z,4.60
2023-03-12T10:31:29.328Z,4.60
2023-03-12T10:33:58.882Z,4.60
2023-03-12T10:36:27.828Z,4.60
2023-03-12T10:38:57.339Z,4.60
2023-03-12T10:41:34.865Z,4.60
2023-03-12T10:44:07.668Z,4.50
2023-03-12T10:46:37.493Z,4.50
2023-03-12T10:49:37.300Z,4.50
2023-03-12T10:52:19.085Z,4.50
2023-03-12T10:54:47.939Z,4.50
2023-03-12T10:57:16.220Z,4.50
2023-03-12T10:59:45.412Z,4.50
2023-03-12T11:02:33.513Z,4.50
2023-03-12T11:05:03.599Z,4.50
2023-03-12T11:07:35.309Z,4.60
2023-03-12T11:10:07.771Z,4.70
2023-03-12T11:12:37.016Z,4.80
2023-03-12T11:15:25.996Z,4.80
2023-03-12T11:17:52.964Z,4.80
2023-03-12T11:20:28.086Z,4.90
2023-03-12T11:22:54.973Z,4.90
2023-03-12T11:25:29.184Z,4.90
2023-03-12T11:28:00.705Z,4.90
2023-03-12T11:30:36.972Z,4.80
2023-03-12T11:33:04.184Z,4.80
2023-03-12T11:35:50.889Z,4.80
2023-03-12T11:38:27.653Z,4.80
2023-03-12T11:41:12.670Z,4.80
2023-03-12T11:43:57.400Z,4.80
2023-03-12T11:46:51.799Z,4.90
2023-03-12T11:49:53.193Z,4.90
2023-03-12T11:52:31.663Z,4.90
2023-03-12T11:55:16.434Z,4.90
2023-03-12T11:58:00.724Z,4.80
2023-03-12T12:00:48.413Z,4.80
2023-03-12T12:03:30.227Z,4.80
2023-03-12T12:06:48.361Z,4.80
2023-03-12T12:09:41.119Z,4.80
2023-03-12T12:12:21.708Z,4.80
2023-03-12T12:15:00.621Z,4.80
2023-03-12T12:17:59.335Z,4.90
2023-03-12T12:20:41.300Z,4.90
2023-03-12T12:23:19.176Z,5.00
2023-03-12T12:26:09.264Z,5.00
2023-03-12T12:29:17.785Z,5.20
2023-03-12T12:31:59.624Z,5.20
2023-03-12T12:34:38.745Z,5.30
2023-03-12T12:37:18.340Z,5.40
2023-03-12T12:40:11.189Z,5.40
2023-03-12T12:42:53.460Z,5.40
2023-03-12T12:45:21.884Z,5.40
2023-03-12T12:48:07.152Z,5.40
2023-03-12T12:50:42.758Z,5.40
2023-03-12T12:53:15.460Z,5.40
2023-03-12T12:56:07.058Z,5.50
2023-03-12T12:58:46.322Z,5.60
2023-03-12T13:01:15.077Z,5.60
2023-03-12T13:03:43.133Z,5.70
2023-03-12T13:06:12.496Z,5.70
2023-03-12T13:08:44.673Z,5.60
2023-03-12T13:11:44.125Z,5.70
2023-03-12T13:14:10.781Z,5.70
2023-03-12T13:16:45.483Z,5.70
2023-03-12T13:19:14.863Z,5.70
2023-03-12T13:21:57.982Z,5.70
2023-03-12T13:24:35.367Z,5.70
2023-03-12T13:27:11.002Z,5.80
2023-03-12T13:29:41.388Z,5.70
2023-03-12T13:32:37.038Z,5.80
2023-03-12T13:35:15.747Z,5.80
2023-03-12T13:37:51.418Z,5.80
2023-03-12T13:40:30.076Z,5.80
2023-03-12T13:43:19.025Z,5.80
2023-03-12T13:45:54.864Z,5.90
2023-03-12T13:48:22.726Z,5.90
2023-03-12T13:50:58.743Z,5.90
2023-03-12T13:53:38.624Z,5.80
2023-03-12T13:56:16.841Z,5.90
2023-03-12T13:59:14.409Z,6.00
2023-03-12T14:01:45.657Z,5.90
2023-03-12T14:04:23.436Z,5.90
2023-03-12T14:07:09.762Z,6.00
2023-03-12T14:10:00.763Z,6.10
2023-03-12T14:12:45.391Z,6.20
2023-03-12T14:15:47.221Z,6.20
2023-03-12T14:18:20.775Z,6.20
2023-03-12T14:20:54.886Z,6.30
2023-03-12T14:23:24.834Z,6.50
2023-03-12T14:25:56.838Z,6.60
2023-03-12T14:28:25.193Z,6.70
2023-03-12T14:31:05.159Z,6.70
2023-03-12T14:33:36.175Z,6.80
2023-03-12T14:36:17.234Z,6.90
2023-03-12T14:38:45.937Z,7.00
2023-03-12T14:41:32.084Z,7.10
2023-03-12T14:44:16.157Z,7.20
2023-03-12T14:46:55.066Z,7.20
2023-03-12T14:49:21.899Z,7.30
2023-03-12T14:51:48.735Z,7.40
2023-03-12T14:54:23.598Z,7.50
2023-03-12T14:56:51.256Z,7.60
2023-03-12T14:59:31.383Z,7.60
2023-03-12T15:02:18.393Z,7.70
2023-03-12T15:04:46.214Z,7.70
2023-03-12T15:07:17.099Z,7.80
2023-03-12T15:09:47.400Z,7.90
2023-03-12T15:12:26.395Z,8.00
2023-03-12T15:15:03.655Z,8.00
2023-03-12T15:17:31.624Z,8.10
2023-03-12T15:19:59.140Z,8.20
2023-03-12T15:22:30.151Z,8.30
2023-03-12T15:25:02.905Z,8.30
2023-03-12T15:27:29.515Z,8.40
2023-03-12T15:29:58.698Z,8.40
2023-03-12T15:32:26.810Z,8.50
2023-03-12T15:34:57.558Z,8.60
2023-03-12T15:37:38.550Z,8.60
2023-03-12T15:40:19.818Z,8.60
2023-03-12T15:42:47.814Z,8.70
2023-03-12T15:45:25.025Z,8.70
2023-03-12T15:47:54.395Z,8.80
2023-03-12T15:50:45.769Z,8.90
2023-03-12T15:53:12.358Z,8.90
2023-03-12T15:55:41.698Z,8.90
2023-03-12T15:58:31.594Z,9.00
2023-03-12T16:01:08.780Z,9.10
2023-03-12T16:03:36.335Z,9.10
2023-03-12T16:06:03.282Z,9.10
2023-03-12T16:08:41.106Z,9.20
2023-03-12T16:11:19.294Z,9.20
2023-03-12T16:13:48.707Z,9.20
2023-03-12T16:16:15.784Z,9.20
2023-03-12T16:18:43.524Z,9.20
2023-03-12T16:21:10.799Z,9.20
2023-03-12T16:23:37.508Z,9.20
2023-03-12T16:26:05.748Z,9.20
2023-03-12T16:28:35.280Z,9.10
2023-03-12T16:31:02.441Z,9.10
2023-03-12T16:33:29.076Z,9.20
2023-03-12T16:35:56.087Z,9.20
2023-03-12T16:38:22.800Z,9.20
2023-03-12T16:40:51.204Z,9.20
2023-03-12T16:43:21.735Z,9.20
2023-03-12T16:45:50.564Z,9.20
2023-03-12T16:48:21.055Z,9.20
2023-03-12T16:50:51.548Z,9.20
2023-03-12T16:53:19.000Z,9.20
2023-03-12T16:55:47.313Z,9.20
2023-03-12T16:58:16.263Z,9.20
2023-03-12T17:00:43.580Z,9.20
2023-03-12T17:03:19.663Z,9.20
2023-03-12T17:05:46.438Z,9.20
2023-03-12T17:08:14.420Z,9.20
2023-03-12T17:10:41.143Z,9.20
2023-03-12T17:13:13.437Z,9.10
2023-03-12T17:15:40.136Z,9.10
2023-03-12T17:18:09.030Z,9.10
2023-03-12T17:20:36.155Z,9.00
2023-03-12T17:23:05.304Z,9.00
2023-03-12T17:25:34.753Z,8.80
2023-03-12T17:28:01.656Z,8.80
2023-03-12T17:30:29.806Z,8.70
2023-03-12T17:33:11.483Z,8.70
2023-03-12T17:35:38.632Z,8.60
2023-03-12T17:38:05.854Z,8.50
2023-03-12T17:40:32.673Z,8.50
2023-03-12T17:42:59.363Z,8.50
2023-03-12T17:45:26.654Z,8.50
2023-03-12T17:47:53.330Z,8.40
2023-03-12T17:50:20.067Z,8.40
2023-03-12T17:52:46.865Z,8.40
2023-03-12T17:55:13.534Z,8.30
2023-03-12T17:57:40.753Z,8.20
2023-03-12T18:00:12.510Z,8.10
2023-03-12T18:02:40.850Z,8.00
2023-03-12T18:05:09.124Z,7.90
2023-03-12T18:07:36.035Z,7.80
2023-03-12T18:10:03.843Z,7.80
2023-03-12T18:12:30.549Z,7.70
2023-03-12T18:15:00.200Z,7.70
2023-03-12T18:17:26.993Z,7.70
2023-03-12T18:19:53.627Z,7.60
2023-03-12T18:22:20.398Z,7.70
2023-03-12T18:24:49.251Z,7.70
2023-03-12T18:27:15.995Z,7.70
2023-03-12T18:29:42.718Z,7.80
2023-03-12T18:32:09.540Z,7.80
2023-03-12T18:34:37.525Z,7.80
2023-03-12T18:37:04.187Z,7.80
2023-03-12T18:39:30.925Z,7.90
2023-03-12T18:41:57.602Z,7.80
2023-03-12T18:44:24.255Z,7.90
2023-03-12T18:46:51.863Z,7.90
2023-03-12T18:49:18.679Z,7.90
2023-03-12T18:51:45.941Z,8.00
2023-03-12T18:54:12.768Z,8.10
2023-03-12T18:56:40.938Z,8.00
2023-03-12T18:59:09.742Z,8.10
2023-03-12T19:01:37.019Z,8.20
2023-03-12T19:04:04.101Z,8.20
2023-03-12T19:06:37.902Z,8.30
2023-03-12T19:09:14.674Z,8.20
2023-03-12T19:11:41.371Z,8.30
2023-03-12T19:14:08.617Z,8.20
2023-03-12T19:16:35.307Z,8.20
2023-03-12T19:19:01.970Z,8.10
2023-03-12T19:21:28.674Z,8.10
2023-03-12T19:23:55.326Z,8.10
2023-03-12T19:26:22.475Z,8.10
2023-03-12T19:28:52.205Z,8.10
2023-03-12T19:31:18.930Z,8.10
2023-03-12T19:33:45.731Z,8.00
2023-03-12T19:36:12.464Z,8.00
2023-03-12T19:38:39.237Z,8.00
2023-03-12T19:41:11.599Z,7.90
2023-03-12T19:43:41.428Z,7.80
2023-03-12T19:46:08.232Z,7.80
2023-03-12T19:48:34.938Z,7.70
2023-03-12T19:51:11.792Z,7.60
2023-03-12T19:53:40.165Z,7.60
2023-03-12T19:56:07.261Z,7.60
2023-03-12T19:58:35.132Z,7.50
2023-03-12T20:01:05.107Z,7.50
2023-03-12T20:03:32.858Z,7.50
2023-03-12T20:05:59.955Z,7.60
2023-03-12T20:08:32.415Z,7.60
2023-03-12T20:11:08.236Z,7.60
2023-03-12T20:13:35.363Z,7.70
2023-03-12T20:16:03.785Z,7.70
2023-03-12T20:18:30.724Z,7.70
2023-03-12T20:20:57.391Z,7.70
2023-03-12T20:23:24.174Z,7.70
2023-03-12T20:25:51.131Z,7.70
2023-03-12T20:28:18.322Z,7.80
2023-03-12T20:30:45.358Z,7.80
2023-03-12T20:33:12.096Z,7.80
2023-03-12T20:35:39.531Z,7.80
2023-03-12T20:38:06.373Z,7.80
2023-03-12T20:40:34.739Z,7.90
2023-03-12T20:43:04.689Z,7.90
2023-03-12T20:45:36.690Z,7.80
2023-03-12T20:48:03.546Z,7.80
2023-03-12T20:50:30.254Z,7.80
2023-03-12T20:52:56.866Z,7.80
2023-03-12T20:55:26.597Z,7.80
2023-03-12T20:57:53.234Z,7.80
2023-03-12T21:00:21.493Z,7.80
2023-03-12T21:02:48.573Z,7.70
2023-03-12T21:05:15.461Z,7.70
2023-03-12T21:07:45.233Z,7.70
2023-03-12T21:10:13.227Z,7.70
2023-03-12T21:12:41.553Z,7.70
2023-03-12T21:15:10.326Z,7.70
2023-03-12T21:17:38.770Z,7.70
2023-03-12T21:20:13.315Z,7.60
2023-03-12T21:22:43.511Z,7.60
2023-03-12T21:25:11.625Z,7.60
2023-03-12T21:27:49.844Z,7.60
2023-03-12T21:30:18.133Z,7.50
2023-03-12T21:32:44.882Z,7.50
2023-03-12T21:35:18.981Z,7.50
2023-03-12T21:37:46.236Z,7.50
2023-03-12T21:40:13.880Z,7.50
2023-03-12T21:42:40.621Z,7.50
2023-03-12T21:45:08.286Z,7.40
2023-03-12T21:47:39.277Z,7.50
2023-03-12T21:50:06.274Z,7.40
2023-03-12T21:52:41.291Z,7.40
2023-03-12T21:55:10.275Z,7.40
2023-03-12T21:57:37.047Z,7.40
2023-03-12T22:00:05.111Z,7.40
2023-03-12T22:02:32.312Z,7.40
2023-03-12T22:05:00.701Z,7.30
2023-03-12T22:07:30.082Z,7.30
2023-03-12T22:09:57.043Z,7.30
2023-03-12T22:12:24.115Z,7.30
2023-03-12T22:14:51.012Z,7.30
2023-03-12T22:17:17.909Z,7.30
2023-03-12T22:19:44.571Z,7.30
2023-03-12T22:22:11.889Z,7.30
2023-03-12T22:24:38.614Z,7.30
2023-03-12T22:27:07.367Z,7.30
2023-03-12T22:29:37.368Z,7.30
2023-03-12T22:32:04.280Z,7.30
2023-03-12T22:34:30.916Z,7.30
2023-03-12T22:36:59.584Z,7.30
2023-03-12T22:39:26.259Z,7.30
2023-03-12T22:41:53.489Z,7.30
2023-03-12T22:44:20.229Z,7.30
2023-03-12T22:46:46.961Z,7.30
2023-03-12T22:49:15.255Z,7.30
2023-03-12T22:51:41.980Z,7.30
2023-03-12T22:54:08.713Z,7.30
2023-03-12T22:56:35.559Z,7.30
2023-03-12T22:59:02.255Z,7.30
2023-03-12T23:01:28.997Z,7.30
2023-03-12T23:03:55.758Z,7.30
2023-03-12T23:06:25.422Z,7.30
2023-03-12T23:08:54.665Z,7.30
2023-03-12T23:11:21.564Z,7.30
2023-03-12T23:13:49.818Z,7.20
2023-03-12T23:16:19.383Z,7.30
2023-03-12T23:18:47.300Z,7.30
2023-03-12T23:21:17.507Z,7.30
2023-03-12T23:23:44.835Z,7.30
2023-03-12T23:26:16.714Z,7.30
2023-03-12T23:28:47.248Z,7.30
2023-03-12T23:31:15.670Z,7.30
2023-03-12T23:33:42.440Z,7.30
2023-03-12T23:36:13.035Z,7.30
2023-03-12T23:38:39.837Z,7.20
2023-03-12T23:41:07.752Z,7.30
2023-03-12T23:43:34.739Z,7.20
2023-03-12T23:46:03.694Z,7.20
2023-03-12T23:48:32.376Z,7.30
2023-03-12T23:51:29.134Z,7.20
2023-03-12T23:53:58.094Z,7.20
2023-03-12T23:56:29.471Z,7.30
2023-03-12T23:58:56.064Z,7.20
